sensor_id;sensor_type;location;lat;lon;timestamp;P1;durP1;ratioP1;P2;durP2;ratioP2
71975;SDS011;68326;52.124;5.424;2024-03-29T00:01:44;2.10;;;0.20;;
71975;SDS011;68326;52.124;5.424;2024-03-29T00:04:11;1.77;;;0.10;;
71975;SDS011;68326;52.124;5.424;2024-03-29T00:06:38;1.52;;;0.20;;
71975;SDS011;68326;52.124;5.424;2024-03-29T00:09:04;2.33;;;0.40;;
71975;SDS011;68326;52.124;5.424;2024-03-29T00:11:31;4.47;;;0.40;;
71975;SDS011;68326;52.124;5.424;2024-03-29T00:13:58;4.17;;;0.30;;
71975;SDS011;68326;52.124;5.424;2024-03-29T00:16:24;2.37;;;0.27;;
71975;SDS011;68326;52.124;5.424;2024-03-29T00:18:52;3.47;;;0.30;;
71975;SDS011;68326;52.124;5.424;2024-03-29T00:21:18;5.00;;;0.30;;
71975;SDS011;68326;52.124;5.424;2024-03-29T00:23:45;2.63;;;0.20;;
71975;SDS011;68326;52.124;5.424;2024-03-29T00:26:12;1.73;;;0.20;;
71975;SDS011;68326;52.124;5.424;2024-03-29T00:28:39;2.00;;;0.10;;
71975;SDS011;68326;52.124;5.424;2024-03-29T00:31:06;3.35;;;0.30;;
71975;SDS011;68326;52.124;5.424;2024-03-29T00:33:34;1.27;;;0.20;;
71975;SDS011;68326;52.124;5.424;2024-03-29T00:36:01;4.13;;;0.23;;
71975;SDS011;68326;52.124;5.424;2024-03-29T00:38:28;2.07;;;0.40;;
71975;SDS011;68326;52.124;5.424;2024-03-29T00:40:55;4.80;;;0.20;;
71975;SDS011;68326;52.124;5.424;2024-03-29T00:43:21;2.08;;;0.30;;
71975;SDS011;68326;52.124;5.424;2024-03-29T00:45:48;4.77;;;0.20;;
71975;SDS011;68326;52.124;5.424;2024-03-29T00:48:15;2.07;;;0.20;;
71975;SDS011;68326;52.124;5.424;2024-03-29T00:50:43;3.27;;;0.30;;
71975;SDS011;68326;52.124;5.424;2024-03-29T00:53:10;3.27;;;1.07;;
71975;SDS011;68326;52.124;5.424;2024-03-29T00:55:37;0.73;;;0.20;;
71975;SDS011;68326;52.124;5.424;2024-03-29T00:58:04;3.17;;;0.20;;
71975;SDS011;68326;52.124;5.424;2024-03-29T01:00:30;2.47;;;0.50;;
71975;SDS011;68326;52.124;5.424;2024-03-29T01:02:57;1.50;;;0.10;;
71975;SDS011;68326;52.124;5.424;2024-03-29T01:05:24;1.30;;;0.00;;
71975;SDS011;68326;52.124;5.424;2024-03-29T01:07:50;1.77;;;0.20;;
71975;SDS011;68326;52.124;5.424;2024-03-29T01:10:17;2.17;;;0.20;;
71975;SDS011;68326;52.124;5.424;2024-03-29T01:12:44;2.93;;;0.23;;
71975;SDS011;68326;52.124;5.424;2024-03-29T01:15:12;4.00;;;0.43;;
71975;SDS011;68326;52.124;5.424;2024-03-29T01:17:39;1.80;;;0.10;;
71975;SDS011;68326;52.124;5.424;2024-03-29T01:20:06;1.40;;;0.10;;
71975;SDS011;68326;52.124;5.424;2024-03-29T01:22:34;1.60;;;0.10;;
71975;SDS011;68326;52.124;5.424;2024-03-29T01:25:01;4.50;;;0.10;;
71975;SDS011;68326;52.124;5.424;2024-03-29T01:27:30;1.50;;;0.10;;
71975;SDS011;68326;52.124;5.424;2024-03-29T01:29:56;0.97;;;0.07;;
71975;SDS011;68326;52.124;5.424;2024-03-29T01:32:23;2.22;;;0.10;;
71975;SDS011;68326;52.124;5.424;2024-03-29T01:34:50;1.80;;;0.10;;
71975;SDS011;68326;52.124;5.424;2024-03-29T01:37:17;0.50;;;0.10;;
71975;SDS011;68326;52.124;5.424;2024-03-29T01:39:43;2.40;;;0.10;;
71975;SDS011;68326;52.124;5.424;2024-03-29T01:42:10;3.10;;;0.53;;
71975;SDS011;68326;52.124;5.424;2024-03-29T01:44:37;2.67;;;0.10;;
71975;SDS011;68326;52.124;5.424;2024-03-29T01:47:03;1.47;;;0.10;;
71975;SDS011;68326;52.124;5.424;2024-03-29T01:49:30;2.40;;;0.20;;
71975;SDS011;68326;52.124;5.424;2024-03-29T01:51:57;0.97;;;0.40;;
71975;SDS011;68326;52.124;5.424;2024-03-29T01:54:24;3.03;;;0.13;;
71975;SDS011;68326;52.124;5.424;2024-03-29T01:56:51;1.38;;;0.30;;
71975;SDS011;68326;52.124;5.424;2024-03-29T01:59:18;3.80;;;0.23;;
71975;SDS011;68326;52.124;5.424;2024-03-29T02:01:45;2.40;;;0.17;;
71975;SDS011;68326;52.124;5.424;2024-03-29T02:04:12;4.00;;;0.20;;
71975;SDS011;68326;52.124;5.424;2024-03-29T02:06:39;2.93;;;0.20;;
71975;SDS011;68326;52.124;5.424;2024-03-29T02:09:05;2.72;;;0.20;;
71975;SDS011;68326;52.124;5.424;2024-03-29T02:11:33;2.03;;;0.20;;
71975;SDS011;68326;52.124;5.424;2024-03-29T02:14:00;2.47;;;0.17;;
71975;SDS011;68326;52.124;5.424;2024-03-29T02:16:27;4.80;;;0.20;;
71975;SDS011;68326;52.124;5.424;2024-03-29T02:18:54;2.17;;;0.27;;
71975;SDS011;68326;52.124;5.424;2024-03-29T02:21:20;2.28;;;0.30;;
71975;SDS011;68326;52.124;5.424;2024-03-29T02:23:47;2.17;;;0.10;;
71975;SDS011;68326;52.124;5.424;2024-03-29T02:26:22;1.03;;;0.30;;
71975;SDS011;68326;52.124;5.424;2024-03-29T02:28:51;3.97;;;0.20;;
71975;SDS011;68326;52.124;5.424;2024-03-29T02:31:17;1.83;;;0.10;;
71975;SDS011;68326;52.124;5.424;2024-03-29T02:33:44;1.45;;;0.20;;
71975;SDS011;68326;52.124;5.424;2024-03-29T02:36:11;2.10;;;0.20;;
71975;SDS011;68326;52.124;5.424;2024-03-29T02:38:40;2.93;;;0.10;;
71975;SDS011;68326;52.124;5.424;2024-03-29T02:41:06;1.60;;;0.20;;
71975;SDS011;68326;52.124;5.424;2024-03-29T02:43:33;2.43;;;0.20;;
71975;SDS011;68326;52.124;5.424;2024-03-29T02:46:00;2.30;;;0.20;;
71975;SDS011;68326;52.124;5.424;2024-03-29T02:48:26;1.40;;;0.13;;
71975;SDS011;68326;52.124;5.424;2024-03-29T02:50:53;2.90;;;0.20;;
71975;SDS011;68326;52.124;5.424;2024-03-29T02:53:19;4.67;;;0.47;;
71975;SDS011;68326;52.124;5.424;2024-03-29T02:55:46;2.57;;;0.10;;
71975;SDS011;68326;52.124;5.424;2024-03-29T02:58:13;0.75;;;0.10;;
71975;SDS011;68326;52.124;5.424;2024-03-29T03:00:39;5.43;;;0.30;;
71975;SDS011;68326;52.124;5.424;2024-03-29T03:03:06;1.27;;;0.20;;
71975;SDS011;68326;52.124;5.424;2024-03-29T03:05:33;3.07;;;0.20;;
71975;SDS011;68326;52.124;5.424;2024-03-29T03:07:59;3.23;;;0.20;;
71975;SDS011;68326;52.124;5.424;2024-03-29T03:10:47;1.08;;;0.08;;
71975;SDS011;68326;52.124;5.424;2024-03-29T03:13:28;2.13;;;0.43;;
71975;SDS011;68326;52.124;5.424;2024-03-29T03:15:55;2.30;;;0.10;;
71975;SDS011;68326;52.124;5.424;2024-03-29T03:18:22;1.50;;;0.10;;
71975;SDS011;68326;52.124;5.424;2024-03-29T03:20:50;1.67;;;0.20;;
71975;SDS011;68326;52.124;5.424;2024-03-29T03:23:20;1.45;;;0.20;;
71975;SDS011;68326;52.124;5.424;2024-03-29T03:25:53;4.33;;;0.27;;
71975;SDS011;68326;52.124;5.424;2024-03-29T03:28:21;3.03;;;0.33;;
71975;SDS011;68326;52.124;5.424;2024-03-29T03:30:49;3.93;;;0.10;;
71975;SDS011;68326;52.124;5.424;2024-03-29T03:33:16;0.67;;;0.10;;
71975;SDS011;68326;52.124;5.424;2024-03-29T03:35:43;0.75;;;0.10;;
71975;SDS011;68326;52.124;5.424;2024-03-29T03:38:10;4.10;;;0.10;;
71975;SDS011;68326;52.124;5.424;2024-03-29T03:40:37;0.30;;;0.10;;
71975;SDS011;68326;52.124;5.424;2024-03-29T03:43:05;1.90;;;0.10;;
71975;SDS011;68326;52.124;5.424;2024-03-29T03:45:36;4.70;;;0.37;;
71975;SDS011;68326;52.124;5.424;2024-03-29T03:48:04;0.57;;;0.10;;
71975;SDS011;68326;52.124;5.424;2024-03-29T03:50:32;0.70;;;0.10;;
71975;SDS011;68326;52.124;5.424;2024-03-29T03:52:59;4.20;;;0.20;;
71975;SDS011;68326;52.124;5.424;2024-03-29T03:55:26;0.50;;;0.10;;
71975;SDS011;68326;52.124;5.424;2024-03-29T03:57:53;0.87;;;0.10;;
71975;SDS011;68326;52.124;5.424;2024-03-29T04:00:21;2.08;;;0.10;;
71975;SDS011;68326;52.124;5.424;2024-03-29T04:02:49;1.43;;;0.10;;
71975;SDS011;68326;52.124;5.424;2024-03-29T04:05:16;1.37;;;0.10;;
71975;SDS011;68326;52.124;5.424;2024-03-29T04:07:44;1.40;;;0.10;;
71975;SDS011;68326;52.124;5.424;2024-03-29T04:10:12;0.93;;;0.00;;
71975;SDS011;68326;52.124;5.424;2024-03-29T04:12:40;2.08;;;0.20;;
71975;SDS011;68326;52.124;5.424;2024-03-29T04:15:06;2.03;;;0.13;;
71975;SDS011;68326;52.124;5.424;2024-03-29T04:17:34;0.50;;;0.13;;
71975;SDS011;68326;52.124;5.424;2024-03-29T04:20:01;1.67;;;0.30;;
71975;SDS011;68326;52.124;5.424;2024-03-29T04:22:28;2.20;;;0.20;;
71975;SDS011;68326;52.124;5.424;2024-03-29T04:24:55;2.22;;;0.20;;
71975;SDS011;68326;52.124;5.424;2024-03-29T04:27:22;2.33;;;0.10;;
71975;SDS011;68326;52.124;5.424;2024-03-29T04:29:52;1.57;;;0.10;;
71975;SDS011;68326;52.124;5.424;2024-03-29T04:32:20;2.07;;;0.20;;
71975;SDS011;68326;52.124;5.424;2024-03-29T04:34:48;1.07;;;0.10;;
71975;SDS011;68326;52.124;5.424;2024-03-29T04:37:15;0.63;;;0.10;;
71975;SDS011;68326;52.124;5.424;2024-03-29T04:39:43;2.10;;;0.27;;
71975;SDS011;68326;52.124;5.424;2024-03-29T04:42:10;2.50;;;0.20;;
71975;SDS011;68326;52.124;5.424;2024-03-29T04:44:37;1.33;;;0.30;;
71975;SDS011;68326;52.124;5.424;2024-03-29T04:47:04;0.10;;;0.00;;
71975;SDS011;68326;52.124;5.424;2024-03-29T04:49:31;2.28;;;0.10;;
71975;SDS011;68326;52.124;5.424;2024-03-29T04:52:03;2.03;;;0.10;;
71975;SDS011;68326;52.124;5.424;2024-03-29T04:54:31;1.73;;;0.10;;
71975;SDS011;68326;52.124;5.424;2024-03-29T04:56:59;0.40;;;0.00;;
71975;SDS011;68326;52.124;5.424;2024-03-29T04:59:28;1.00;;;0.00;;
71975;SDS011;68326;52.124;5.424;2024-03-29T05:01:55;1.75;;;0.05;;
71975;SDS011;68326;52.124;5.424;2024-03-29T05:04:23;0.90;;;0.10;;
71975;SDS011;68326;52.124;5.424;2024-03-29T05:06:53;0.30;;;0.00;;
71975;SDS011;68326;52.124;5.424;2024-03-29T05:09:20;0.63;;;0.00;;
71975;SDS011;68326;52.124;5.424;2024-03-29T05:11:47;1.17;;;0.33;;
71975;SDS011;68326;52.124;5.424;2024-03-29T05:14:19;0.47;;;0.00;;
71975;SDS011;68326;52.124;5.424;2024-03-29T05:16:46;0.50;;;0.10;;
71975;SDS011;68326;52.124;5.424;2024-03-29T05:19:14;0.70;;;0.00;;
71975;SDS011;68326;52.124;5.424;2024-03-29T05:21:42;2.93;;;0.20;;
71975;SDS011;68326;52.124;5.424;2024-03-29T05:24:09;1.53;;;0.10;;
71975;SDS011;68326;52.124;5.424;2024-03-29T05:26:36;0.93;;;0.13;;
71975;SDS011;68326;52.124;5.424;2024-03-29T05:29:03;2.60;;;0.20;;
71975;SDS011;68326;52.124;5.424;2024-03-29T05:31:30;0.70;;;0.10;;
71975;SDS011;68326;52.124;5.424;2024-03-29T05:33:57;2.13;;;0.10;;
71975;SDS011;68326;52.124;5.424;2024-03-29T05:36:23;2.30;;;0.20;;
71975;SDS011;68326;52.124;5.424;2024-03-29T05:38:50;0.63;;;0.10;;
71975;SDS011;68326;52.124;5.424;2024-03-29T05:41:17;0.63;;;0.30;;
71975;SDS011;68326;52.124;5.424;2024-03-29T05:43:43;7.50;;;0.10;;
71975;SDS011;68326;52.124;5.424;2024-03-29T05:46:10;0.83;;;0.10;;
71975;SDS011;68326;52.124;5.424;2024-03-29T05:48:37;0.63;;;0.07;;
71975;SDS011;68326;52.124;5.424;2024-03-29T05:51:05;3.28;;;0.08;;
71975;SDS011;68326;52.124;5.424;2024-03-29T05:53:32;2.43;;;0.10;;
71975;SDS011;68326;52.124;5.424;2024-03-29T05:55:58;3.60;;;0.20;;
71975;SDS011;68326;52.124;5.424;2024-03-29T05:58:25;1.90;;;0.10;;
71975;SDS011;68326;52.124;5.424;2024-03-29T06:00:52;0.73;;;0.10;;
71975;SDS011;68326;52.124;5.424;2024-03-29T06:03:18;0.90;;;0.10;;
71975;SDS011;68326;52.124;5.424;2024-03-29T06:05:45;1.23;;;0.10;;
71975;SDS011;68326;52.124;5.424;2024-03-29T06:08:12;1.97;;;0.10;;
71975;SDS011;68326;52.124;5.424;2024-03-29T06:10:39;0.83;;;0.00;;
71975;SDS011;68326;52.124;5.424;2024-03-29T06:13:05;0.67;;;0.10;;
71975;SDS011;68326;52.124;5.424;2024-03-29T06:15:44;2.03;;;0.10;;
71975;SDS011;68326;52.124;5.424;2024-03-29T06:18:29;0.50;;;0.00;;
71975;SDS011;68326;52.124;5.424;2024-03-29T06:20:55;0.90;;;0.10;;
71975;SDS011;68326;52.124;5.424;2024-03-29T06:23:22;5.50;;;0.20;;
71975;SDS011;68326;52.124;5.424;2024-03-29T06:25:49;0.87;;;0.03;;
71975;SDS011;68326;52.124;5.424;2024-03-29T06:28:15;1.25;;;0.10;;
71975;SDS011;68326;52.124;5.424;2024-03-29T06:30:43;0.87;;;0.10;;
71975;SDS011;68326;52.124;5.424;2024-03-29T06:33:09;1.13;;;0.10;;
71975;SDS011;68326;52.124;5.424;2024-03-29T06:35:36;1.43;;;0.20;;
71975;SDS011;68326;52.124;5.424;2024-03-29T06:38:03;2.27;;;0.10;;
71975;SDS011;68326;52.124;5.424;2024-03-29T06:40:30;0.47;;;0.00;;
71975;SDS011;68326;52.124;5.424;2024-03-29T06:42:56;1.77;;;0.30;;
71975;SDS011;68326;52.124;5.424;2024-03-29T06:45:25;1.40;;;0.10;;
71975;SDS011;68326;52.124;5.424;2024-03-29T06:47:51;0.93;;;0.10;;
71975;SDS011;68326;52.124;5.424;2024-03-29T06:50:18;1.03;;;0.27;;
71975;SDS011;68326;52.124;5.424;2024-03-29T06:52:45;1.90;;;0.10;;
71975;SDS011;68326;52.124;5.424;2024-03-29T06:55:12;0.40;;;0.10;;
71975;SDS011;68326;52.124;5.424;2024-03-29T06:57:39;0.97;;;0.10;;
71975;SDS011;68326;52.124;5.424;2024-03-29T07:00:05;0.50;;;0.10;;
71975;SDS011;68326;52.124;5.424;2024-03-29T07:02:32;0.50;;;0.00;;
71975;SDS011;68326;52.124;5.424;2024-03-29T07:04:59;1.65;;;0.10;;
71975;SDS011;68326;52.124;5.424;2024-03-29T07:07:31;0.63;;;0.10;;
71975;SDS011;68326;52.124;5.424;2024-03-29T07:09:58;3.07;;;0.20;;
71975;SDS011;68326;52.124;5.424;2024-03-29T07:12:25;1.07;;;0.10;;
71975;SDS011;68326;52.124;5.424;2024-03-29T07:14:51;0.40;;;0.20;;
71975;SDS011;68326;52.124;5.424;2024-03-29T07:17:18;0.57;;;0.10;;
71975;SDS011;68326;52.124;5.424;2024-03-29T07:19:45;2.13;;;0.20;;
71975;SDS011;68326;52.124;5.424;2024-03-29T07:22:11;1.43;;;0.10;;
71975;SDS011;68326;52.124;5.424;2024-03-29T07:24:56;1.00;;;0.10;;
71975;SDS011;68326;52.124;5.424;2024-03-29T07:27:23;1.80;;;0.20;;
71975;SDS011;68326;52.124;5.424;2024-03-29T07:29:49;1.02;;;0.10;;
71975;SDS011;68326;52.124;5.424;2024-03-29T07:32:16;1.70;;;0.20;;
71975;SDS011;68326;52.124;5.424;2024-03-29T07:34:43;5.50;;;0.20;;
71975;SDS011;68326;52.124;5.424;2024-03-29T07:37:09;1.70;;;0.10;;
71975;SDS011;68326;52.124;5.424;2024-03-29T07:39:41;0.93;;;0.20;;
71975;SDS011;68326;52.124;5.424;2024-03-29T07:42:08;0.65;;;0.10;;
71975;SDS011;68326;52.124;5.424;2024-03-29T07:44:35;2.50;;;0.20;;
71975;SDS011;68326;52.124;5.424;2024-03-29T07:47:02;0.83;;;0.10;;
71975;SDS011;68326;52.124;5.424;2024-03-29T07:49:30;2.43;;;0.10;;
71975;SDS011;68326;52.124;5.424;2024-03-29T07:51:56;0.60;;;0.10;;
71975;SDS011;68326;52.124;5.424;2024-03-29T07:54:23;1.25;;;0.10;;
71975;SDS011;68326;52.124;5.424;2024-03-29T07:56:50;1.00;;;0.10;;
71975;SDS011;68326;52.124;5.424;2024-03-29T07:59:16;0.33;;;0.10;;
71975;SDS011;68326;52.124;5.424;2024-03-29T08:01:45;0.63;;;0.10;;
71975;SDS011;68326;52.124;5.424;2024-03-29T08:04:12;0.80;;;0.10;;
71975;SDS011;68326;52.124;5.424;2024-03-29T08:06:39;0.30;;;0.10;;
71975;SDS011;68326;52.124;5.424;2024-03-29T08:09:05;2.20;;;0.20;;
71975;SDS011;68326;52.124;5.424;2024-03-29T08:11:32;0.53;;;0.10;;
71975;SDS011;68326;52.124;5.424;2024-03-29T08:13:59;0.57;;;0.17;;
71975;SDS011;68326;52.124;5.424;2024-03-29T08:16:25;0.67;;;0.00;;
71975;SDS011;68326;52.124;5.424;2024-03-29T08:18:53;0.30;;;0.10;;
71975;SDS011;68326;52.124;5.424;2024-03-29T08:21:20;0.47;;;0.03;;
71975;SDS011;68326;52.124;5.424;2024-03-29T08:23:47;1.60;;;0.10;;
71975;SDS011;68326;52.124;5.424;2024-03-29T08:26:14;0.40;;;0.00;;
71975;SDS011;68326;52.124;5.424;2024-03-29T08:28:40;0.40;;;0.10;;
71975;SDS011;68326;52.124;5.424;2024-03-29T08:31:10;0.73;;;0.10;;
71975;SDS011;68326;52.124;5.424;2024-03-29T08:33:36;0.30;;;0.10;;
71975;SDS011;68326;52.124;5.424;2024-03-29T08:36:07;0.53;;;0.10;;
71975;SDS011;68326;52.124;5.424;2024-03-29T08:38:35;0.50;;;0.10;;
71975;SDS011;68326;52.124;5.424;2024-03-29T08:41:02;0.50;;;0.10;;
71975;SDS011;68326;52.124;5.424;2024-03-29T08:43:29;0.50;;;0.10;;
71975;SDS011;68326;52.124;5.424;2024-03-29T08:45:56;0.40;;;0.17;;
71975;SDS011;68326;52.124;5.424;2024-03-29T08:48:23;0.53;;;0.13;;
71975;SDS011;68326;52.124;5.424;2024-03-29T08:50:51;0.97;;;0.20;;
71975;SDS011;68326;52.124;5.424;2024-03-29T08:53:18;0.17;;;0.10;;
71975;SDS011;68326;52.124;5.424;2024-03-29T08:55:46;1.08;;;0.20;;
71975;SDS011;68326;52.124;5.424;2024-03-29T08:58:14;1.90;;;0.10;;
71975;SDS011;68326;52.124;5.424;2024-03-29T09:00:41;0.07;;;0.00;;
71975;SDS011;68326;52.124;5.424;2024-03-29T09:03:08;1.60;;;0.10;;
71975;SDS011;68326;52.124;5.424;2024-03-29T09:05:34;1.10;;;0.10;;
71975;SDS011;68326;52.124;5.424;2024-03-29T09:08:01;0.50;;;0.10;;
71975;SDS011;68326;52.124;5.424;2024-03-29T09:10:28;1.73;;;0.10;;
71975;SDS011;68326;52.124;5.424;2024-03-29T09:12:54;0.70;;;0.10;;
71975;SDS011;68326;52.124;5.424;2024-03-29T09:15:21;0.53;;;0.10;;
71975;SDS011;68326;52.124;5.424;2024-03-29T09:17:48;0.43;;;0.10;;
71975;SDS011;68326;52.124;5.424;2024-03-29T09:20:14;0.20;;;0.10;;
71975;SDS011;68326;52.124;5.424;2024-03-29T09:22:41;1.23;;;0.20;;
71975;SDS011;68326;52.124;5.424;2024-03-29T09:25:08;0.83;;;0.10;;
71975;SDS011;68326;52.124;5.424;2024-03-29T09:27:40;0.53;;;0.30;;
71975;SDS011;68326;52.124;5.424;2024-03-29T09:30:12;0.30;;;0.10;;
71975;SDS011;68326;52.124;5.424;2024-03-29T09:32:39;0.80;;;0.20;;
71975;SDS011;68326;52.124;5.424;2024-03-29T09:35:06;0.10;;;0.10;;
71975;SDS011;68326;52.124;5.424;2024-03-29T09:37:33;0.30;;;0.10;;
71975;SDS011;68326;52.124;5.424;2024-03-29T09:40:04;2.80;;;0.20;;
71975;SDS011;68326;52.124;5.424;2024-03-29T09:42:31;0.93;;;0.10;;
71975;SDS011;68326;52.124;5.424;2024-03-29T09:44:59;1.38;;;0.20;;
71975;SDS011;68326;52.124;5.424;2024-03-29T09:47:29;0.40;;;0.10;;
71975;SDS011;68326;52.124;5.424;2024-03-29T09:49:58;1.77;;;0.20;;
71975;SDS011;68326;52.124;5.424;2024-03-29T09:52:32;2.37;;;0.20;;
71975;SDS011;68326;52.124;5.424;2024-03-29T09:55:02;0.20;;;0.10;;
71975;SDS011;68326;52.124;5.424;2024-03-29T09:57:29;0.52;;;0.20;;
71975;SDS011;68326;52.124;5.424;2024-03-29T09:59:56;1.53;;;0.20;;
71975;SDS011;68326;52.124;5.424;2024-03-29T10:02:27;3.57;;;0.80;;
71975;SDS011;68326;52.124;5.424;2024-03-29T10:04:57;0.83;;;0.20;;
71975;SDS011;68326;52.124;5.424;2024-03-29T10:07:24;2.23;;;0.20;;
71975;SDS011;68326;52.124;5.424;2024-03-29T10:09:51;1.85;;;0.30;;
71975;SDS011;68326;52.124;5.424;2024-03-29T10:12:19;0.87;;;0.20;;
71975;SDS011;68326;52.124;5.424;2024-03-29T10:14:46;1.03;;;0.20;;
71975;SDS011;68326;52.124;5.424;2024-03-29T10:17:21;2.17;;;0.20;;
71975;SDS011;68326;52.124;5.424;2024-03-29T10:19:48;0.40;;;0.10;;
71975;SDS011;68326;52.124;5.424;2024-03-29T10:22:14;0.93;;;0.20;;
71975;SDS011;68326;52.124;5.424;2024-03-29T10:24:41;3.33;;;0.20;;
71975;SDS011;68326;52.124;5.424;2024-03-29T10:27:08;1.07;;;0.30;;
71975;SDS011;68326;52.124;5.424;2024-03-29T10:29:34;1.93;;;0.37;;
71975;SDS011;68326;52.124;5.424;2024-03-29T10:32:01;0.67;;;0.20;;
71975;SDS011;68326;52.124;5.424;2024-03-29T10:34:29;1.58;;;0.30;;
71975;SDS011;68326;52.124;5.424;2024-03-29T10:37:00;0.87;;;0.20;;
71975;SDS011;68326;52.124;5.424;2024-03-29T10:39:31;1.13;;;0.20;;
71975;SDS011;68326;52.124;5.424;2024-03-29T10:42:00;1.53;;;0.30;;
71975;SDS011;68326;52.124;5.424;2024-03-29T10:44:28;2.70;;;0.23;;
71975;SDS011;68326;52.124;5.424;2024-03-29T10:46:56;0.90;;;0.30;;
71975;SDS011;68326;52.124;5.424;2024-03-29T10:49:24;2.23;;;0.27;;
71975;SDS011;68326;52.124;5.424;2024-03-29T10:51:52;0.90;;;0.30;;
71975;SDS011;68326;52.124;5.424;2024-03-29T10:54:19;1.20;;;0.20;;
71975;SDS011;68326;52.124;5.424;2024-03-29T10:56:47;1.00;;;0.37;;
71975;SDS011;68326;52.124;5.424;2024-03-29T10:59:22;1.50;;;0.20;;
71975;SDS011;68326;52.124;5.424;2024-03-29T11:02:03;0.70;;;0.20;;
71975;SDS011;68326;52.124;5.424;2024-03-29T11:04:39;3.53;;;0.30;;
71975;SDS011;68326;52.124;5.424;2024-03-29T11:07:09;0.97;;;0.27;;
71975;SDS011;68326;52.124;5.424;2024-03-29T11:09:47;1.17;;;0.30;;
71975;SDS011;68326;52.124;5.424;2024-03-29T11:12:19;0.98;;;0.30;;
71975;SDS011;68326;52.124;5.424;2024-03-29T11:14:49;0.90;;;0.23;;
71975;SDS011;68326;52.124;5.424;2024-03-29T11:17:27;1.03;;;0.33;;
71975;SDS011;68326;52.124;5.424;2024-03-29T11:19:58;0.60;;;0.30;;
71975;SDS011;68326;52.124;5.424;2024-03-29T11:22:26;0.93;;;0.30;;
71975;SDS011;68326;52.124;5.424;2024-03-29T11:24:54;0.57;;;0.15;;
71975;SDS011;68326;52.124;5.424;2024-03-29T11:27:24;0.53;;;0.30;;
71975;SDS011;68326;52.124;5.424;2024-03-29T11:29:52;1.20;;;0.40;;
71975;SDS011;68326;52.124;5.424;2024-03-29T11:32:34;0.90;;;0.37;;
71975;SDS011;68326;52.124;5.424;2024-03-29T11:35:02;1.77;;;0.40;;
71975;SDS011;68326;52.124;5.424;2024-03-29T11:37:29;0.95;;;0.38;;
71975;SDS011;68326;52.124;5.424;2024-03-29T11:40:00;0.80;;;0.30;;
71975;SDS011;68326;52.124;5.424;2024-03-29T11:45:24;0.40;;;0.20;;
71975;SDS011;68326;52.124;5.424;2024-03-29T11:47:54;0.60;;;0.20;;
71975;SDS011;68326;52.124;5.424;2024-03-29T11:50:21;1.10;;;0.20;;
71975;SDS011;68326;52.124;5.424;2024-03-29T11:52:49;0.80;;;0.20;;
71975;SDS011;68326;52.124;5.424;2024-03-29T11:55:15;0.37;;;0.20;;
71975;SDS011;68326;52.124;5.424;2024-03-29T11:57:42;0.60;;;0.30;;
71975;SDS011;68326;52.124;5.424;2024-03-29T12:00:09;0.33;;;0.20;;
71975;SDS011;68326;52.124;5.424;2024-03-29T12:02:36;1.65;;;0.20;;
71975;SDS011;68326;52.124;5.424;2024-03-29T12:05:06;1.00;;;0.30;;
71975;SDS011;68326;52.124;5.424;2024-03-29T12:07:34;0.40;;;0.20;;
71975;SDS011;68326;52.124;5.424;2024-03-29T12:10:01;7.47;;;0.47;;
71975;SDS011;68326;52.124;5.424;2024-03-29T12:12:28;2.73;;;0.50;;
71975;SDS011;68326;52.124;5.424;2024-03-29T12:14:58;1.17;;;0.20;;
71975;SDS011;68326;52.124;5.424;2024-03-29T12:17:25;0.87;;;0.20;;
71975;SDS011;68326;52.124;5.424;2024-03-29T12:19:57;0.50;;;0.30;;
71975;SDS011;68326;52.124;5.424;2024-03-29T12:22:27;1.57;;;0.30;;
71975;SDS011;68326;52.124;5.424;2024-03-29T12:24:54;1.10;;;0.27;;
71975;SDS011;68326;52.124;5.424;2024-03-29T12:27:20;2.25;;;0.40;;
71975;SDS011;68326;52.124;5.424;2024-03-29T12:29:50;3.80;;;0.47;;
71975;SDS011;68326;52.124;5.424;2024-03-29T12:32:20;2.30;;;0.70;;
71975;SDS011;68326;52.124;5.424;2024-03-29T12:34:47;1.60;;;0.50;;
71975;SDS011;68326;52.124;5.424;2024-03-29T12:37:15;1.20;;;0.43;;
71975;SDS011;68326;52.124;5.424;2024-03-29T12:39:41;2.55;;;0.70;;
71975;SDS011;68326;52.124;5.424;2024-03-29T12:42:08;1.37;;;0.60;;
71975;SDS011;68326;52.124;5.424;2024-03-29T12:44:36;0.90;;;0.37;;
71975;SDS011;68326;52.124;5.424;2024-03-29T12:47:03;1.43;;;0.70;;
71975;SDS011;68326;52.124;5.424;2024-03-29T12:49:30;1.57;;;0.50;;
71975;SDS011;68326;52.124;5.424;2024-03-29T12:51:59;0.90;;;0.55;;
71975;SDS011;68326;52.124;5.424;2024-03-29T12:54:26;2.10;;;0.80;;
71975;SDS011;68326;52.124;5.424;2024-03-29T12:56:53;2.00;;;0.87;;
71975;SDS011;68326;52.124;5.424;2024-03-29T12:59:20;1.40;;;0.73;;
71975;SDS011;68326;52.124;5.424;2024-03-29T13:01:47;1.60;;;0.80;;
71975;SDS011;68326;52.124;5.424;2024-03-29T13:04:14;2.45;;;0.70;;
71975;SDS011;68326;52.124;5.424;2024-03-29T13:06:41;1.63;;;0.90;;
71975;SDS011;68326;52.124;5.424;2024-03-29T13:09:07;1.97;;;0.77;;
71975;SDS011;68326;52.124;5.424;2024-03-29T13:11:34;1.90;;;0.90;;
71975;SDS011;68326;52.124;5.424;2024-03-29T13:14:01;1.60;;;0.80;;
71975;SDS011;68326;52.124;5.424;2024-03-29T13:16:27;1.05;;;0.70;;
71975;SDS011;68326;52.124;5.424;2024-03-29T13:18:54;1.53;;;1.00;;
71975;SDS011;68326;52.124;5.424;2024-03-29T13:21:20;1.87;;;0.63;;
71975;SDS011;68326;52.124;5.424;2024-03-29T13:23:48;1.87;;;0.73;;
71975;SDS011;68326;52.124;5.424;2024-03-29T13:26:14;1.57;;;0.57;;
71975;SDS011;68326;52.124;5.424;2024-03-29T13:28:41;1.50;;;0.80;;
71975;SDS011;68326;52.124;5.424;2024-03-29T13:31:07;1.97;;;0.50;;
71975;SDS011;68326;52.124;5.424;2024-03-29T13:33:34;2.50;;;0.80;;
71975;SDS011;68326;52.124;5.424;2024-03-29T13:36:01;0.90;;;0.40;;
71975;SDS011;68326;52.124;5.424;2024-03-29T13:38:28;0.80;;;0.47;;
71975;SDS011;68326;52.124;5.424;2024-03-29T13:40:58;2.15;;;0.60;;
71975;SDS011;68326;52.124;5.424;2024-03-29T13:43:25;2.60;;;0.70;;
71975;SDS011;68326;52.124;5.424;2024-03-29T13:45:51;1.63;;;0.67;;
71975;SDS011;68326;52.124;5.424;2024-03-29T13:48:18;1.90;;;0.30;;
71975;SDS011;68326;52.124;5.424;2024-03-29T13:50:45;1.77;;;0.50;;
71975;SDS011;68326;52.124;5.424;2024-03-29T13:53:12;3.63;;;0.60;;
71975;SDS011;68326;52.124;5.424;2024-03-29T13:55:39;2.00;;;0.40;;
71975;SDS011;68326;52.124;5.424;2024-03-29T13:58:06;0.80;;;0.40;;
71975;SDS011;68326;52.124;5.424;2024-03-29T14:00:32;1.00;;;0.40;;
71975;SDS011;68326;52.124;5.424;2024-03-29T14:02:59;0.80;;;0.20;;
71975;SDS011;68326;52.124;5.424;2024-03-29T14:05:26;0.73;;;0.30;;
71975;SDS011;68326;52.124;5.424;2024-03-29T14:07:52;0.67;;;0.30;;
71975;SDS011;68326;52.124;5.424;2024-03-29T14:10:19;2.30;;;0.50;;
71975;SDS011;68326;52.124;5.424;2024-03-29T14:12:46;1.13;;;0.30;;
71975;SDS011;68326;52.124;5.424;2024-03-29T14:15:14;1.33;;;0.30;;
71975;SDS011;68326;52.124;5.424;2024-03-29T14:17:41;0.98;;;0.30;;
71975;SDS011;68326;52.124;5.424;2024-03-29T14:20:08;1.80;;;0.33;;
71975;SDS011;68326;52.124;5.424;2024-03-29T14:22:37;0.60;;;0.30;;
71975;SDS011;68326;52.124;5.424;2024-03-29T14:25:05;1.60;;;0.30;;
71975;SDS011;68326;52.124;5.424;2024-03-29T14:27:36;1.30;;;0.27;;
71975;SDS011;68326;52.124;5.424;2024-03-29T14:30:12;0.40;;;0.20;;
71975;SDS011;68326;52.124;5.424;2024-03-29T14:32:40;1.17;;;0.17;;
71975;SDS011;68326;52.124;5.424;2024-03-29T14:35:22;0.63;;;0.20;;
71975;SDS011;68326;52.124;5.424;2024-03-29T14:37:50;0.53;;;0.20;;
71975;SDS011;68326;52.124;5.424;2024-03-29T14:40:16;0.70;;;0.20;;
71975;SDS011;68326;52.124;5.424;2024-03-29T14:42:44;0.40;;;0.10;;
71975;SDS011;68326;52.124;5.424;2024-03-29T14:45:11;3.83;;;0.30;;
71975;SDS011;68326;52.124;5.424;2024-03-29T14:47:38;0.67;;;0.30;;
71975;SDS011;68326;52.124;5.424;2024-03-29T14:50:05;0.57;;;0.20;;
71975;SDS011;68326;52.124;5.424;2024-03-29T14:52:34;0.70;;;0.20;;
71975;SDS011;68326;52.124;5.424;2024-03-29T14:55:01;0.20;;;0.10;;